Time;durP1;ratioP1;P1;durP2;ratioP2;P2;SDS_P1;SDS_P2;PMS_P1;PMS_P2;Temp;Humidity;BMP_temperature;BMP_pressure;BME280_temperature;BME280_humidity;BME280_pressure;Samples;Min_cycle;Max_cycle;Signal;HPM_P1;HPM_P2
2023/08/15 00:02:15;;;;;;;22.57;21.07;;;;;;;;;;5124087;27;20496;-86
2023/08/15 00:04:42;;;;;;;23.70;22.40;;;;;;;;;;5124643;28;20455;-86
2023/08/15 00:07:10;;;;;;;24.03;22.30;;;;;;;;;;5124909;28;20414;-86
2023/08/15 00:09:37;;;;;;;23.73;22.43;;;;;;;;;;5122914;28;20456;-86
2023/08/15 00:12:04;;;;;;;23.73;22.40;;;;;;;;;;5124124;28;20873;-86
2023/08/15 00:14:31;;;;;;;23.60;22.30;;;;;;;;;;5123936;28;20841;-86
2023/08/15 00:17:01;;;;;;;24.53;22.73;;;;;;;;;;5125510;28;20443;-86
2023/08/15 00:19:29;;;;;;;23.17;21.87;;;;;;;;;;5128293;28;20447;-86
2023/08/15 00:22:05;;;;;;;23.30;22.00;;;;;;;;;;5122786;28;20513;-86
2023/08/15 00:24:32;;;;;;;23.23;21.73;;;;;;;;;;5123252;28;20929;-86
2023/08/15 00:27:00;;;;;;;24.20;22.77;;;;;;;;;;5124218;28;20418;-84
2023/08/15 00:29:27;;;;;;;24.73;23.23;;;;;;;;;;5123862;28;20433;-86
2023/08/15 00:31:56;;;;;;;23.73;22.23;;;;;;;;;;5122643;27;21117;-86
2023/08/15 00:34:26;;;;;;;23.80;22.50;;;;;;;;;;5122316;28;20427;-86
2023/08/15 00:36:54;;;;;;;24.00;22.50;;;;;;;;;;5123355;28;20468;-86
2023/08/15 00:39:21;;;;;;;23.47;22.07;;;;;;;;;;5123330;28;20447;-86
2023/08/15 00:41:48;;;;;;;23.50;21.90;;;;;;;;;;5122412;28;20455;-86
2023/08/15 00:44:15;;;;;;;22.90;21.50;;;;;;;;;;5116777;28;20791;-86
2023/08/15 00:46:53;;;;;;;24.53;22.93;;;;;;;;;;5114994;28;20438;-85
2023/08/15 00:49:20;;;;;;;23.53;21.93;;;;;;;;;;5116495;28;20432;-86
2023/08/15 00:51:49;;;;;;;24.00;22.50;;;;;;;;;;5116217;28;20452;-86
2023/08/15 00:54:16;;;;;;;24.50;23.10;;;;;;;;;;5117109;28;20448;-86
2023/08/15 00:56:44;;;;;;;23.57;22.17;;;;;;;;;;5117429;28;20436;-86
2023/08/15 00:59:11;;;;;;;23.90;22.23;;;;;;;;;;5117006;28;20447;-86
2023/08/15 01:01:38;;;;;;;25.13;23.63;;;;;;;;;;5116660;28;20835;-86
2023/08/15 01:04:07;;;;;;;23.80;22.20;;;;;;;;;;5116138;28;20529;-86
2023/08/15 01:06:34;;;;;;;23.93;22.53;;;;;;;;;;5116635;28;20471;-86
2023/08/15 01:09:03;;;;;;;23.87;22.37;;;;;;;;;;5116543;28;20453;-86
2023/08/15 01:11:34;;;;;;;23.47;21.90;;;;;;;;;;5115612;28;20937;-86
2023/08/15 01:14:02;;;;;;;25.17;23.47;;;;;;;;;;5115594;28;20421;-86
2023/08/15 01:16:32;;;;;;;22.63;21.23;;;;;;;;;;5116109;28;20848;-86
2023/08/15 01:19:03;;;;;;;24.93;23.27;;;;;;;;;;5115216;28;20454;-86
2023/08/15 01:21:34;;;;;;;24.73;23.27;;;;;;;;;;5115128;28;20786;-86
2023/08/15 01:24:02;;;;;;;23.63;22.13;;;;;;;;;;5114976;28;20845;-86
2023/08/15 01:26:29;;;;;;;24.27;22.87;;;;;;;;;;5114584;28;20455;-87
2023/08/15 01:28:57;;;;;;;24.67;23.20;;;;;;;;;;5115299;28;20447;-86
2023/08/15 01:31:27;;;;;;;25.10;23.60;;;;;;;;;;5115436;28;20446;-86
2023/08/15 01:33:58;;;;;;;25.93;24.23;;;;;;;;;;5115667;28;20487;-86
2023/08/15 01:36:28;;;;;;;23.70;22.20;;;;;;;;;;5116039;28;20444;-85
2023/08/15 01:38:57;;;;;;;23.37;22.07;;;;;;;;;;5121949;28;20497;-86
2023/08/15 01:41:26;;;;;;;24.17;22.77;;;;;;;;;;5115083;28;20443;-86
2023/08/15 01:43:53;;;;;;;24.57;22.93;;;;;;;;;;5115046;28;20459;-85
2023/08/15 01:46:24;;;;;;;24.20;22.80;;;;;;;;;;5119569;28;20432;-85
2023/08/15 01:48:51;;;;;;;25.63;23.80;;;;;;;;;;5120710;28;20575;-85
2023/08/15 01:51:18;;;;;;;24.43;22.53;;;;;;;;;;5114097;28;20877;-85
2023/08/15 01:53:45;;;;;;;25.13;23.67;;;;;;;;;;5116101;28;21128;-85
2023/08/15 01:56:13;;;;;;;26.30;24.50;;;;;;;;;;5114900;28;20501;-85
2023/08/15 01:58:42;;;;;;;23.93;22.50;;;;;;;;;;5114829;28;20495;-85
2023/08/15 02:01:09;;;;;;;24.40;23.00;;;;;;;;;;5116861;28;20444;-85
2023/08/15 02:03:36;;;;;;;24.90;23.30;;;;;;;;;;5114636;28;20781;-85
2023/08/15 02:06:04;;;;;;;25.27;23.77;;;;;;;;;;5114329;28;20433;-85
2023/08/15 02:08:31;;;;;;;24.87;23.27;;;;;;;;;;5113072;28;20952;-85
2023/08/15 02:10:58;;;;;;;26.53;24.90;;;;;;;;;;5113555;28;20497;-85
2023/08/15 02:13:30;;;;;;;25.57;23.67;;;;;;;;;;5114268;28;20468;-85
2023/08/15 02:15:58;;;;;;;25.80;24.30;;;;;;;;;;5113513;28;20452;-85
2023/08/15 02:18:27;;;;;;;24.57;23.23;;;;;;;;;;5113999;28;20487;-85
2023/08/15 02:20:54;;;;;;;25.07;23.50;;;;;;;;;;5114285;28;20448;-85
2023/08/15 02:23:21;;;;;;;25.00;23.40;;;;;;;;;;5112727;28;20491;-85
2023/08/15 02:25:49;;;;;;;25.40;23.90;;;;;;;;;;5114324;28;20444;-85
2023/08/15 02:28:16;;;;;;;25.87;24.30;;;;;;;;;;5114093;28;20443;-85
2023/08/15 02:30:43;;;;;;;25.90;24.00;;;;;;;;;;5113891;28;20450;-85
2023/08/15 02:33:11;;;;;;;25.03;23.57;;;;;;;;;;5113373;28;20487;-85
2023/08/15 02:35:40;;;;;;;26.03;24.33;;;;;;;;;;5114182;28;20892;-85
2023/08/15 02:38:07;;;;;;;25.60;24.10;;;;;;;;;;5117427;28;20483;-86
2023/08/15 02:40:34;;;;;;;25.20;23.80;;;;;;;;;;5125185;28;20459;-86
2023/08/15 02:43:01;;;;;;;24.90;23.43;;;;;;;;;;5125841;28;20468;-86
2023/08/15 02:45:28;;;;;;;24.73;23.23;;;;;;;;;;5124873;28;20467;-86
2023/08/15 02:48:04;;;;;;;25.03;23.43;;;;;;;;;;5123495;28;20446;-86
2023/08/15 02:50:33;;;;;;;25.50;24.00;;;;;;;;;;5123985;28;20883;-86
2023/08/15 02:53:00;;;;;;;24.63;23.23;;;;;;;;;;5124295;28;20447;-86
2023/08/15 02:55:27;;;;;;;26.10;24.40;;;;;;;;;;5128181;28;20463;-84
2023/08/15 02:57:55;;;;;;;25.43;24.00;;;;;;;;;;5124748;28;20538;-86
2023/08/15 03:00:29;;;;;;;24.43;23.00;;;;;;;;;;5119899;28;20486;-85
2023/08/15 03:02:56;;;;;;;23.70;22.40;;;;;;;;;;5117583;28;20459;-85
2023/08/15 03:05:23;;;;;;;24.70;23.00;;;;;;;;;;5117631;28;20450;-85
2023/08/15 03:07:52;;;;;;;25.13;23.33;;;;;;;;;;5117921;28;20481;-85
2023/08/15 03:10:19;;;;;;;24.37;23.00;;;;;;;;;;5116919;28;20459;-86
2023/08/15 03:12:46;;;;;;;24.90;23.40;;;;;;;;;;5117830;28;20475;-85
2023/08/15 03:15:13;;;;;;;24.07;22.77;;;;;;;;;;5117665;28;20434;-85
2023/08/15 03:17:40;;;;;;;23.50;22.10;;;;;;;;;;5117739;28;20483;-85
2023/08/15 03:20:09;;;;;;;23.90;22.50;;;;;;;;;;5117557;28;20451;-86
2023/08/15 03:22:36;;;;;;;24.60;23.00;;;;;;;;;;5117266;28;20476;-85
2023/08/15 03:25:04;;;;;;;23.80;22.50;;;;;;;;;;5117389;28;20447;-85
2023/08/15 03:27:31;;;;;;;24.20;22.50;;;;;;;;;;5133848;28;20439;-84
2023/08/15 03:29:59;;;;;;;24.30;22.90;;;;;;;;;;5128554;28;20433;-85
2023/08/15 03:32:26;;;;;;;22.80;21.50;;;;;;;;;;5116914;28;20472;-86
2023/08/15 03:34:53;;;;;;;23.73;22.43;;;;;;;;;;5116735;28;20439;-85
2023/08/15 03:37:20;;;;;;;25.03;23.33;;;;;;;;;;5117535;28;20422;-85
2023/08/15 03:39:47;;;;;;;25.43;23.93;;;;;;;;;;5116861;28;20418;-85
2023/08/15 03:42:15;;;;;;;25.47;23.80;;;;;;;;;;5117052;28;20472;-85
2023/08/15 03:44:42;;;;;;;26.30;24.27;;;;;;;;;;5116231;28;20464;-85
2023/08/15 03:47:09;;;;;;;24.27;22.67;;;;;;;;;;5116796;28;20467;-85
2023/08/15 03:49:37;;;;;;;23.97;22.60;;;;;;;;;;5115829;28;20437;-85
2023/08/15 03:52:05;;;;;;;23.90;22.47;;;;;;;;;;5116399;28;20495;-85
2023/08/15 03:54:32;;;;;;;24.23;22.87;;;;;;;;;;5115951;28;20496;-85
2023/08/15 03:56:59;;;;;;;26.00;24.10;;;;;;;;;;5116454;28;21095;-85
2023/08/15 03:59:27;;;;;;;23.63;22.40;;;;;;;;;;5117021;28;20472;-85
2023/08/15 04:01:54;;;;;;;24.97;23.33;;;;;;;;;;5114897;28;20528;-86
2023/08/15 04:04:27;;;;;;;24.53;22.93;;;;;;;;;;5116677;28;20406;-85
2023/08/15 04:06:55;;;;;;;24.20;22.37;;;;;;;;;;5116292;28;20451;-85
2023/08/15 04:09:22;;;;;;;23.83;22.27;;;;;;;;;;5116697;28;20462;-85
2023/08/15 04:11:49;;;;;;;25.40;23.57;;;;;;;;;;5115138;28;20443;-85
2023/08/15 04:14:16;;;;;;;23.83;22.37;;;;;;;;;;5116130;28;20420;-85
2023/08/15 04:16:44;;;;;;;26.30;23.73;;;;;;;;;;5115976;28;20448;-85
2023/08/15 04:19:11;;;;;;;24.50;23.20;;;;;;;;;;5115439;28;20886;-85
2023/08/15 04:21:38;;;;;;;25.77;23.97;;;;;;;;;;5115294;28;20934;-85
2023/08/15 04:24:05;;;;;;;24.60;23.07;;;;;;;;;;5116127;28;20499;-80
2023/08/15 04:26:32;;;;;;;24.67;23.20;;;;;;;;;;5117035;28;20419;-81
2023/08/15 04:29:00;;;;;;;23.63;22.33;;;;;;;;;;5116597;28;20448;-81
2023/08/15 04:31:27;;;;;;;23.13;21.80;;;;;;;;;;5115670;28;20501;-81
2023/08/15 04:33:55;;;;;;;23.43;22.03;;;;;;;;;;5116178;28;20454;-80
2023/08/15 04:36:22;;;;;;;25.17;23.40;;;;;;;;;;5117463;28;21193;-85
2023/08/15 04:38:50;;;;;;;24.57;23.17;;;;;;;;;;5130776;28;20469;-85
2023/08/15 04:41:17;;;;;;;24.67;23.20;;;;;;;;;;5120014;28;20454;-85
2023/08/15 04:43:46;;;;;;;23.40;22.20;;;;;;;;;;5115626;28;20465;-85
2023/08/15 04:46:13;;;;;;;24.37;22.87;;;;;;;;;;5117078;28;20885;-85
2023/08/15 04:48:40;;;;;;;26.37;24.67;;;;;;;;;;5119681;28;20925;-85
2023/08/15 04:51:09;;;;;;;25.07;23.57;;;;;;;;;;5116442;28;20403;-85
2023/08/15 04:53:36;;;;;;;25.43;23.83;;;;;;;;;;5115911;28;20510;-85
2023/08/15 04:56:05;;;;;;;25.83;24.03;;;;;;;;;;5117999;28;20925;-85
2023/08/15 04:58:32;;;;;;;24.70;23.30;;;;;;;;;;5118743;28;20447;-85
2023/08/15 05:01:00;;;;;;;24.97;23.63;;;;;;;;;;5114932;28;20458;-86
2023/08/15 05:03:27;;;;;;;26.70;25.00;;;;;;;;;;5119375;28;21024;-85
2023/08/15 05:05:54;;;;;;;30.63;28.50;;;;;;;;;;5118986;28;20429;-86
2023/08/15 05:08:28;;;;;;;40.03;36.80;;;;;;;;;;5119901;28;20411;-86
2023/08/15 05:10:55;;;;;;;55.73;52.13;;;;;;;;;;5119064;28;20439;-87
2023/08/15 05:13:22;;;;;;;68.63;63.90;;;;;;;;;;5120730;28;20434;-87
2023/08/15 05:15:49;;;;;;;63.13;59.67;;;;;;;;;;5121473;28;20423;-87
2023/08/15 05:18:17;;;;;;;63.30;59.50;;;;;;;;;;5122571;28;20562;-87
2023/08/15 05:20:47;;;;;;;59.87;56.57;;;;;;;;;;5122962;28;20462;-87
2023/08/15 05:23:14;;;;;;;57.03;53.83;;;;;;;;;;5120204;28;20951;-87
2023/08/15 05:25:43;;;;;;;53.63;50.50;;;;;;;;;;5122536;28;20908;-87
2023/08/15 05:28:10;;;;;;;57.27;53.27;;;;;;;;;;5121542;28;20923;-87
2023/08/15 05:30:38;;;;;;;48.10;45.53;;;;;;;;;;5117861;28;20418;-87
2023/08/15 05:33:05;;;;;;;52.27;49.17;;;;;;;;;;5120483;28;20462;-87
2023/08/15 05:35:32;;;;;;;53.63;50.23;;;;;;;;;;5118736;28;20921;-87
2023/08/15 05:38:00;;;;;;;53.03;50.13;;;;;;;;;;5121568;28;20406;-86
2023/08/15 05:40:27;;;;;;;56.23;52.93;;;;;;;;;;5118776;28;20976;-86
2023/08/15 05:42:55;;;;;;;56.07;52.67;;;;;;;;;;5118472;28;20499;-86
2023/08/15 05:45:29;;;;;;;55.57;51.10;;;;;;;;;;5119157;28;20432;-86
2023/08/15 05:47:56;;;;;;;55.60;52.30;;;;;;;;;;5118140;28;20436;-86
2023/08/15 05:50:23;;;;;;;53.97;50.57;;;;;;;;;;5119919;28;21124;-86
2023/08/15 05:52:50;;;;;;;57.30;53.70;;;;;;;;;;5121619;28;20980;-82
2023/08/15 05:55:17;;;;;;;59.73;55.20;;;;;;;;;;5119494;28;20439;-81
2023/08/15 05:57:44;;;;;;;61.27;56.53;;;;;;;;;;5119437;28;20436;-82
2023/08/15 06:00:14;;;;;;;57.50;53.80;;;;;;;;;;5117658;28;20465;-82
2023/08/15 06:02:41;;;;;;;55.97;52.70;;;;;;;;;;5117124;28;20479;-82
2023/08/15 06:05:08;;;;;;;59.70;55.87;;;;;;;;;;5118669;28;20442;-82
2023/08/15 06:07:35;;;;;;;56.03;52.30;;;;;;;;;;5119733;28;20426;-82
2023/08/15 06:10:02;;;;;;;59.70;56.07;;;;;;;;;;5117555;28;20471;-82
2023/08/15 06:12:29;;;;;;;60.27;56.67;;;;;;;;;;5119245;28;20467;-83
2023/08/15 06:14:56;;;;;;;62.10;58.07;;;;;;;;;;5120645;28;20411;-82
2023/08/15 06:17:25;;;;;;;60.87;56.90;;;;;;;;;;5120776;28;20451;-82
2023/08/15 06:19:53;;;;;;;59.63;55.83;;;;;;;;;;5120751;28;20868;-82
2023/08/15 06:22:20;;;;;;;58.90;54.77;;;;;;;;;;5120235;28;20483;-82
2023/08/15 06:24:47;;;;;;;59.73;55.83;;;;;;;;;;5120202;28;20469;-82
2023/08/15 06:27:14;;;;;;;55.83;51.93;;;;;;;;;;5120863;28;20440;-82
2023/08/15 06:29:49;;;;;;;58.63;54.93;;;;;;;;;;5122185;28;20440;-82
2023/08/15 06:32:27;;;;;;;60.23;56.13;;;;;;;;;;5120242;28;20450;-82
2023/08/15 06:34:54;;;;;;;59.13;55.13;;;;;;;;;;5120509;28;20471;-82
2023/08/15 06:37:21;;;;;;;56.23;52.33;;;;;;;;;;5121121;28;20913;-82
2023/08/15 06:39:48;;;;;;;56.70;52.90;;;;;;;;;;5120197;28;21348;-82
2023/08/15 06:42:15;;;;;;;57.37;53.87;;;;;;;;;;5120238;28;20521;-81
2023/08/15 06:44:43;;;;;;;57.87;54.07;;;;;;;;;;5121112;28;20436;-81
2023/08/15 06:47:10;;;;;;;55.87;52.33;;;;;;;;;;5119994;28;20506;-83
2023/08/15 06:49:38;;;;;;;57.77;53.97;;;;;;;;;;5120018;28;20431;-82
2023/08/15 06:52:07;;;;;;;55.90;52.23;;;;;;;;;;5120285;28;20456;-82
2023/08/15 06:54:34;;;;;;;58.43;54.53;;;;;;;;;;5120129;28;20452;-82
2023/08/15 06:57:01;;;;;;;61.20;57.10;;;;;;;;;;5119231;28;20455;-81
2023/08/15 06:59:28;;;;;;;60.60;55.83;;;;;;;;;;5120079;28;20464;-82
2023/08/15 07:01:55;;;;;;;56.97;53.20;;;;;;;;;;5119045;28;20467;-81
2023/08/15 07:04:22;;;;;;;56.53;52.90;;;;;;;;;;5121766;28;20882;-81
2023/08/15 07:06:52;;;;;;;58.30;54.43;;;;;;;;;;5120623;28;20444;-81
2023/08/15 07:09:19;;;;;;;59.93;56.33;;;;;;;;;;5120728;28;20450;-81
2023/08/15 07:11:46;;;;;;;56.43;52.77;;;;;;;;;;5119768;28;20933;-80
2023/08/15 07:14:13;;;;;;;54.57;51.30;;;;;;;;;;5118963;27;20474;-81
2023/08/15 07:16:40;;;;;;;53.97;50.70;;;;;;;;;;5120362;28;20456;-81
2023/08/15 07:19:07;;;;;;;54.00;50.67;;;;;;;;;;5120386;28;20475;-81
2023/08/15 07:21:34;;;;;;;53.20;50.20;;;;;;;;;;5119794;28;20450;-82
2023/08/15 07:24:04;;;;;;;54.57;50.90;;;;;;;;;;5119797;28;20415;-81
2023/08/15 07:26:31;;;;;;;52.73;49.53;;;;;;;;;;5119412;28;20435;-82
2023/08/15 07:28:58;;;;;;;52.73;49.47;;;;;;;;;;5121281;28;20801;-81
2023/08/15 07:31:25;;;;;;;53.87;50.87;;;;;;;;;;5120557;28;20444;-82
2023/08/15 07:33:52;;;;;;;54.43;51.33;;;;;;;;;;5118195;28;20496;-81
2023/08/15 07:36:19;;;;;;;53.40;50.40;;;;;;;;;;5118950;28;20442;-82
2023/08/15 07:38:46;;;;;;;52.57;49.67;;;;;;;;;;5103799;28;20424;-82
2023/08/15 07:41:15;;;;;;;50.63;47.83;;;;;;;;;;5098524;28;20512;-82
2023/08/15 07:43:42;;;;;;;51.87;48.90;;;;;;;;;;5098237;28;20488;-82
2023/08/15 07:46:09;;;;;;;51.47;48.57;;;;;;;;;;5098887;28;20441;-81
2023/08/15 07:48:36;;;;;;;51.90;49.10;;;;;;;;;;5098683;28;20795;-80
2023/08/15 07:51:03;;;;;;;51.03;48.23;;;;;;;;;;5110272;28;20786;-80
2023/08/15 07:53:30;;;;;;;49.50;46.70;;;;;;;;;;5119426;28;20474;-80
2023/08/15 07:55:58;;;;;;;51.10;48.40;;;;;;;;;;5119939;28;20464;-80
2023/08/15 07:58:26;;;;;;;49.50;46.80;;;;;;;;;;5120593;28;20478;-81
2023/08/15 08:00:53;;;;;;;51.03;47.97;;;;;;;;;;5119865;28;21000;-80
2023/08/15 08:03:20;;;;;;;48.70;46.00;;;;;;;;;;5093295;28;20475;-81
2023/08/15 08:05:47;;;;;;;47.83;45.30;;;;;;;;;;5071797;27;20471;-79
2023/08/15 08:08:15;;;;;;;47.90;45.30;;;;;;;;;;5039338;28;20456;-79
2023/08/15 08:10:42;;;;;;;47.87;45.27;;;;;;;;;;5119195;28;20470;-81
2023/08/15 08:13:11;;;;;;;47.30;44.70;;;;;;;;;;5120664;28;20449;-80
2023/08/15 08:15:40;;;;;;;44.90;42.50;;;;;;;;;;5120198;28;20487;-81
2023/08/15 08:18:07;;;;;;;47.50;44.90;;;;;;;;;;5119400;28;20451;-80
2023/08/15 08:20:34;;;;;;;46.40;43.90;;;;;;;;;;5119840;28;20487;-80
2023/08/15 08:23:02;;;;;;;48.03;45.40;;;;;;;;;;5119718;28;20995;-81
2023/08/15 08:25:29;;;;;;;42.90;40.60;;;;;;;;;;5103179;28;20506;-80
2023/08/15 08:27:56;;;;;;;42.77;40.00;;;;;;;;;;5108694;28;20419;-79
2023/08/15 08:30:23;;;;;;;40.00;37.63;;;;;;;;;;5117917;28;20796;-80
2023/08/15 08:32:52;;;;;;;39.53;37.33;;;;;;;;;;5118232;28;20484;-79
2023/08/15 08:35:19;;;;;;;39.63;37.23;;;;;;;;;;5119738;28;20452;-80
2023/08/15 08:37:47;;;;;;;43.07;40.70;;;;;;;;;;5116725;28;20456;-80
2023/08/15 08:40:14;;;;;;;42.63;40.23;;;;;;;;;;5120389;28;20450;-81
2023/08/15 08:42:41;;;;;;;40.97;38.57;;;;;;;;;;5121279;28;20485;-79
2023/08/15 08:45:09;;;;;;;38.70;36.70;;;;;;;;;;5123076;28;20801;-81
2023/08/15 08:47:38;;;;;;;36.00;33.90;;;;;;;;;;5122694;28;20829;-80
2023/08/15 08:50:09;;;;;;;36.07;34.07;;;;;;;;;;5119173;28;20470;-81
2023/08/15 08:52:36;;;;;;;32.83;31.03;;;;;;;;;;5121342;28;20558;-80
2023/08/15 08:55:03;;;;;;;32.53;30.73;;;;;;;;;;5121192;28;20452;-79
2023/08/15 08:57:32;;;;;;;30.30;28.40;;;;;;;;;;5118306;28;21220;-80
2023/08/15 09:00:00;;;;;;;29.13;27.43;;;;;;;;;;5119527;28;20479;-81
2023/08/15 09:02:27;;;;;;;28.10;26.60;;;;;;;;;;5120140;28;21012;-81
2023/08/15 09:04:55;;;;;;;27.90;26.20;;;;;;;;;;5119805;28;20444;-92
2023/08/15 09:07:23;;;;;;;28.20;26.50;;;;;;;;;;5117894;28;20428;-79
2023/08/15 09:09:50;;;;;;;26.90;25.17;;;;;;;;;;5120325;28;20487;-80
2023/08/15 09:12:33;;;;;;;25.53;23.90;;;;;;;;;;5119533;28;20442;-80
2023/08/15 09:15:00;;;;;;;24.93;23.63;;;;;;;;;;5117953;28;20462;-81
2023/08/15 09:17:27;;;;;;;25.43;23.93;;;;;;;;;;5117162;28;20444;-81
2023/08/15 09:19:54;;;;;;;22.60;21.40;;;;;;;;;;5117327;28;20450;-80
2023/08/15 09:22:23;;;;;;;25.33;24.03;;;;;;;;;;5115864;28;20492;-80
2023/08/15 09:24:52;;;;;;;24.73;23.43;;;;;;;;;;5118006;28;20395;-80
2023/08/15 09:27:19;;;;;;;25.00;23.67;;;;;;;;;;5112369;28;20422;-80
2023/08/15 09:29:46;;;;;;;23.90;22.70;;;;;;;;;;5096809;28;20437;-80
2023/08/15 09:32:13;;;;;;;25.13;23.70;;;;;;;;;;5105205;28;20479;-80
2023/08/15 09:34:40;;;;;;;23.23;22.03;;;;;;;;;;5117845;28;20475;-80
2023/08/15 09:37:08;;;;;;;22.53;21.33;;;;;;;;;;5118292;28;20455;-79
2023/08/15 09:39:37;;;;;;;22.80;21.60;;;;;;;;;;5116793;28;20447;-82
2023/08/15 09:42:05;;;;;;;21.93;20.43;;;;;;;;;;5115455;28;20448;-81
2023/08/15 09:44:34;;;;;;;21.53;20.23;;;;;;;;;;5115833;28;20489;-81
2023/08/15 09:47:01;;;;;;;21.50;20.20;;;;;;;;;;5116332;28;20446;-81
2023/08/15 09:49:29;;;;;;;21.67;20.53;;;;;;;;;;5115007;28;20857;-81
2023/08/15 09:51:57;;;;;;;21.10;19.70;;;;;;;;;;5114344;28;20468;-80
2023/08/15 09:54:26;;;;;;;23.23;21.90;;;;;;;;;;5115033;28;20452;-81
2023/08/15 09:56:55;;;;;;;22.10;20.90;;;;;;;;;;5115841;28;20502;-81
2023/08/15 09:59:22;;;;;;;22.30;20.93;;;;;;;;;;5115795;28;20406;-80
2023/08/15 10:01:51;;;;;;;22.33;20.90;;;;;;;;;;5115148;28;20444;-80
2023/08/15 10:04:19;;;;;;;22.10;20.90;;;;;;;;;;5116315;28;20434;-81
2023/08/15 10:06:46;;;;;;;22.67;21.20;;;;;;;;;;5116451;28;20414;-82
2023/08/15 10:09:14;;;;;;;24.07;22.57;;;;;;;;;;5116770;28;20418;-81
2023/08/15 10:11:45;;;;;;;23.77;22.23;;;;;;;;;;5115404;28;20462;-81
2023/08/15 10:14:15;;;;;;;22.93;21.53;;;;;;;;;;5115865;28;20459;-80
2023/08/15 10:16:42;;;;;;;23.40;21.90;;;;;;;;;;5116393;28;20479;-81
2023/08/15 10:19:10;;;;;;;24.00;22.60;;;;;;;;;;5115271;28;20974;-80
2023/08/15 10:21:53;;;;;;;24.77;23.07;;;;;;;;;;5115593;28;20480;-81
2023/08/15 10:24:20;;;;;;;26.60;24.70;;;;;;;;;;5114113;28;20451;-81
2023/08/15 10:26:47;;;;;;;25.83;23.80;;;;;;;;;;5115757;28;20430;-80
2023/08/15 10:29:15;;;;;;;27.60;25.60;;;;;;;;;;5116414;28;21069;-81
2023/08/15 10:31:42;;;;;;;27.80;25.80;;;;;;;;;;5101681;28;20460;-79
2023/08/15 10:34:11;;;;;;;30.30;28.10;;;;;;;;;;5094236;28;20441;-81
2023/08/15 10:36:41;;;;;;;30.57;28.40;;;;;;;;;;5094504;28;20510;-80
2023/08/15 10:39:09;;;;;;;28.13;26.23;;;;;;;;;;5094641;28;20786;-80
2023/08/15 10:41:37;;;;;;;31.30;29.20;;;;;;;;;;5095148;28;20523;-80
2023/08/15 10:44:06;;;;;;;31.27;28.70;;;;;;;;;;5096851;28;20425;-79
2023/08/15 10:46:34;;;;;;;29.67;27.40;;;;;;;;;;5095343;28;20441;-81
2023/08/15 10:49:02;;;;;;;30.60;28.17;;;;;;;;;;5103113;28;20471;-81
2023/08/15 10:51:29;;;;;;;25.60;23.63;;;;;;;;;;5115509;28;20471;-80
2023/08/15 10:53:58;;;;;;;26.70;24.70;;;;;;;;;;5116484;28;20836;-80
2023/08/15 10:56:27;;;;;;;26.70;24.87;;;;;;;;;;5112754;28;20972;-80
2023/08/15 10:58:55;;;;;;;27.93;25.93;;;;;;;;;;5097583;28;20842;-82
2023/08/15 11:01:23;;;;;;;27.53;25.37;;;;;;;;;;5104098;28;20523;-80
2023/08/15 11:03:52;;;;;;;29.17;27.07;;;;;;;;;;5121129;28;20472;-81
2023/08/15 11:06:19;;;;;;;29.03;26.93;;;;;;;;;;5117717;28;20913;-80
2023/08/15 11:08:48;;;;;;;29.33;27.30;;;;;;;;;;5098432;28;20475;-80
2023/08/15 11:11:16;;;;;;;30.57;28.10;;;;;;;;;;5118253;28;20485;-80
2023/08/15 11:13:44;;;;;;;31.10;28.00;;;;;;;;;;5102025;27;20453;-81
2023/08/15 11:16:12;;;;;;;31.57;28.20;;;;;;;;;;5099511;28;20460;-81
2023/08/15 11:18:39;;;;;;;28.87;26.77;;;;;;;;;;5100278;28;20448;-80
2023/08/15 11:21:11;;;;;;;30.53;28.10;;;;;;;;;;5101144;28;20479;-80
2023/08/15 11:23:38;;;;;;;29.00;26.43;;;;;;;;;;5106461;28;20483;-81
2023/08/15 11:26:06;;;;;;;27.53;25.27;;;;;;;;;;5120482;28;20860;-81
2023/08/15 11:28:33;;;;;;;29.13;26.57;;;;;;;;;;5120256;28;20444;-79
2023/08/15 11:31:01;;;;;;;28.93;26.67;;;;;;;;;;5107925;28;20449;-81
2023/08/15 11:33:30;;;;;;;28.23;26.07;;;;;;;;;;5120273;28;21032;-80
2023/08/15 11:35:59;;;;;;;26.03;23.83;;;;;;;;;;5118820;28;20476;-81
2023/08/15 11:38:30;;;;;;;26.73;24.77;;;;;;;;;;5102738;28;20426;-81
2023/08/15 11:40:57;;;;;;;26.60;24.67;;;;;;;;;;5100764;28;20484;-81
2023/08/15 11:43:25;;;;;;;25.20;23.50;;;;;;;;;;5100115;28;20506;-81
2023/08/15 11:45:52;;;;;;;26.30;24.50;;;;;;;;;;5101739;28;20419;-80
2023/08/15 11:48:19;;;;;;;27.47;24.77;;;;;;;;;;5100104;28;20468;-81
2023/08/15 11:50:50;;;;;;;27.27;25.10;;;;;;;;;;5100305;28;20436;-80
2023/08/15 11:53:17;;;;;;;26.00;24.13;;;;;;;;;;5101055;28;20476;-81
2023/08/15 11:55:47;;;;;;;26.27;24.40;;;;;;;;;;5100371;28;20449;-81
2023/08/15 11:58:24;;;;;;;27.87;25.77;;;;;;;;;;5102891;28;20926;-80
2023/08/15 12:00:52;;;;;;;26.57;24.67;;;;;;;;;;5100221;28;20446;-81
2023/08/15 12:03:19;;;;;;;26.47;24.50;;;;;;;;;;5099124;28;20583;-81
2023/08/15 12:05:47;;;;;;;26.70;24.80;;;;;;;;;;5099013;28;20449;-80
2023/08/15 12:08:15;;;;;;;25.93;23.93;;;;;;;;;;5098666;28;20477;-81
2023/08/15 12:10:43;;;;;;;25.67;23.77;;;;;;;;;;5097362;28;20436;-80
2023/08/15 12:13:11;;;;;;;27.50;25.30;;;;;;;;;;5099286;28;20526;-80
2023/08/15 12:15:38;;;;;;;26.47;24.70;;;;;;;;;;5098715;28;20454;-81
2023/08/15 12:18:06;;;;;;;26.33;24.33;;;;;;;;;;5098567;28;20445;-80
2023/08/15 12:20:33;;;;;;;25.43;23.53;;;;;;;;;;5097970;28;20476;-81
2023/08/15 12:23:00;;;;;;;26.80;24.67;;;;;;;;;;5098691;28;20467;-80
2023/08/15 12:25:28;;;;;;;25.90;23.90;;;;;;;;;;5098921;28;20452;-80
2023/08/15 12:27:55;;;;;;;27.20;25.30;;;;;;;;;;5100114;28;20484;-81
2023/08/15 12:30:24;;;;;;;27.57;25.30;;;;;;;;;;5097947;28;20460;-80
2023/08/15 12:32:51;;;;;;;27.57;25.40;;;;;;;;;;5099104;28;20477;-79
2023/08/15 12:35:18;;;;;;;28.10;26.10;;;;;;;;;;5099978;28;20433;-80
2023/08/15 12:37:45;;;;;;;27.87;25.83;;;;;;;;;;5102583;28;20460;-80
2023/08/15 12:40:12;;;;;;;26.50;24.60;;;;;;;;;;5101285;28;20449;-80
2023/08/15 12:42:39;;;;;;;27.73;25.33;;;;;;;;;;5097548;28;20483;-81
2023/08/15 12:45:07;;;;;;;26.70;24.67;;;;;;;;;;5097607;28;20445;-79
2023/08/15 12:47:36;;;;;;;27.30;25.33;;;;;;;;;;5100790;28;20440;-81
2023/08/15 12:50:04;;;;;;;27.53;25.40;;;;;;;;;;5107073;28;21266;-80
2023/08/15 12:52:31;;;;;;;27.13;24.83;;;;;;;;;;5099376;28;20469;-81
2023/08/15 12:54:59;;;;;;;27.47;25.27;;;;;;;;;;5100100;28;20441;-80
2023/08/15 12:57:26;;;;;;;27.37;25.63;;;;;;;;;;5097263;28;20445;-80
2023/08/15 12:59:53;;;;;;;26.93;24.73;;;;;;;;;;5097561;28;20472;-80
2023/08/15 13:02:20;;;;;;;26.23;24.33;;;;;;;;;;5098762;28;20496;-81
2023/08/15 13:04:49;;;;;;;26.60;24.80;;;;;;;;;;5103893;28;20449;-80
2023/08/15 13:07:16;;;;;;;25.90;24.20;;;;;;;;;;5099941;28;20814;-80
2023/08/15 13:09:43;;;;;;;25.43;23.47;;;;;;;;;;5103471;28;20437;-80
2023/08/15 13:12:10;;;;;;;25.43;23.50;;;;;;;;;;5099200;28;21080;-80
2023/08/15 13:14:37;;;;;;;25.40;23.70;;;;;;;;;;5100260;28;20448;-81
2023/08/15 13:17:04;;;;;;;24.93;23.23;;;;;;;;;;5099101;28;20905;-80
2023/08/15 13:19:32;;;;;;;25.90;24.10;;;;;;;;;;5100018;28;20441;-80
2023/08/15 13:22:01;;;;;;;26.23;24.43;;;;;;;;;;5097818;28;21024;-80
2023/08/15 13:24:28;;;;;;;25.30;23.80;;;;;;;;;;5100299;28;20552;-80
2023/08/15 13:26:55;;;;;;;23.40;21.90;;;;;;;;;;5099951;28;20427;-81
2023/08/15 13:29:22;;;;;;;25.27;23.53;;;;;;;;;;5096192;28;20453;-80
2023/08/15 13:31:49;;;;;;;25.27;23.57;;;;;;;;;;5097509;28;20445;-81
2023/08/15 13:34:17;;;;;;;25.67;23.87;;;;;;;;;;5101967;28;20925;-80
2023/08/15 13:36:44;;;;;;;25.30;23.50;;;;;;;;;;5099546;28;20449;-81
2023/08/15 13:39:12;;;;;;;25.30;23.60;;;;;;;;;;5102103;28;20449;-80
2023/08/15 13:41:39;;;;;;;24.37;22.70;;;;;;;;;;5096142;28;20484;-80
2023/08/15 13:44:16;;;;;;;24.10;22.60;;;;;;;;;;5098264;28;20809;-80
2023/08/15 13:46:43;;;;;;;25.07;23.27;;;;;;;;;;5098597;28;20502;-80
2023/08/15 13:49:11;;;;;;;24.90;23.00;;;;;;;;;;5098340;28;20949;-80
2023/08/15 13:51:38;;;;;;;25.07;23.20;;;;;;;;;;5097259;28;20441;-81
2023/08/15 13:54:06;;;;;;;24.60;22.67;;;;;;;;;;5097822;28;20810;-83
2023/08/15 13:56:34;;;;;;;24.23;22.40;;;;;;;;;;5095264;28;20841;-78
2023/08/15 13:59:02;;;;;;;24.33;22.57;;;;;;;;;;5095743;28;20437;-81
2023/08/15 14:01:32;;;;;;;23.53;22.03;;;;;;;;;;5096320;28;20484;-81
2023/08/15 14:03:59;;;;;;;24.50;22.90;;;;;;;;;;5098211;28;20516;-81
2023/08/15 14:06:28;;;;;;;24.17;22.60;;;;;;;;;;5097905;28;20448;-80
2023/08/15 14:08:55;;;;;;;24.30;22.70;;;;;;;;;;5098284;28;20487;-83
2023/08/15 14:11:22;;;;;;;24.27;22.67;;;;;;;;;;5094290;28;20439;-79
2023/08/15 14:13:50;;;;;;;24.43;22.93;;;;;;;;;;5094993;28;20472;-80
2023/08/15 14:16:18;;;;;;;23.73;21.93;;;;;;;;;;5095176;28;20453;-80
2023/08/15 14:18:45;;;;;;;23.63;22.20;;;;;;;;;;5095772;28;21057;-79
2023/08/15 14:21:12;;;;;;;24.07;22.37;;;;;;;;;;5094536;28;20489;-78